Time;durP1;ratioP1;P1;durP2;ratioP2;P2;SDS_P1;SDS_P2;PMS_P1;PMS_P2;Temp;Humidity;BMP_temperature;BMP_pressure;BME280_temperature;BME280_humidity;BME280_pressure;Samples;Min_cycle;Max_cycle;Signal;HPM_P1;HPM_P2
2023/01/25 00:01:17;;;;;;;4.75;3.55;;;;;;;-17.86;62.68;98328.94;4926875;28;20737;-55
2023/01/25 00:03:47;;;;;;;7.18;3.40;;;;;;;-17.58;62.20;98359.72;4916151;28;20052;-55
2023/01/25 00:06:18;;;;;;;3.40;3.10;;;;;;;-17.50;63.36;98348.56;4923877;28;20052;-53
2023/01/25 00:08:50;;;;;;;3.22;3.03;;;;;;;-17.56;63.05;98361.53;4926529;28;20474;-56
2023/01/25 00:11:21;;;;;;;4.78;3.50;;;;;;;-17.57;62.38;98357.28;4917502;28;20045;-56
2023/01/25 00:13:54;;;;;;;3.42;3.13;;;;;;;-17.58;61.89;98330.63;4926358;28;20261;-55
2023/01/25 00:16:26;;;;;;;6.30;3.30;;;;;;;-17.65;62.11;98333.50;4926229;28;20048;-57
2023/01/25 00:18:57;;;;;;;5.65;3.10;;;;;;;-17.57;63.27;98347.31;4912416;28;20082;-54
2023/01/25 00:21:28;;;;;;;3.40;3.20;;;;;;;-17.53;63.18;98333.41;4926901;28;20055;-55
2023/01/25 00:23:59;;;;;;;7.25;3.85;;;;;;;-17.61;64.51;98327.94;4926343;28;20044;-56
2023/01/25 00:26:31;;;;;;;3.63;3.30;;;;;;;-17.44;65.19;98339.84;4926617;28;20412;-59
2023/01/25 00:29:02;;;;;;;2.90;2.80;;;;;;;-17.44;66.02;98349.81;4927179;28;20071;-57
2023/01/25 00:31:50;;;;;;;3.47;3.10;;;;;;;-17.25;65.93;98340.97;4926456;28;20051;-57
2023/01/25 00:34:48;;;;;;;3.50;3.20;;;;;;;-17.25;65.94;98345.94;4935307;28;20049;-57
2023/01/25 00:37:29;;;;;;;3.70;3.20;;;;;;;-17.13;65.49;98350.84;4911936;28;20105;-54
2023/01/25 00:39:59;;;;;;;3.10;2.90;;;;;;;-17.29;64.66;98344.06;4915989;28;20184;-56
2023/01/25 00:42:30;;;;;;;3.40;3.15;;;;;;;-17.41;63.51;98369.13;4923136;28;20058;-57
2023/01/25 00:45:00;;;;;;;3.05;2.85;;;;;;;-17.56;61.60;98354.06;4935790;28;20042;-56
2023/01/25 00:47:32;;;;;;;7.18;3.45;;;;;;;-17.57;62.69;98372.28;4934389;28;20108;-55
2023/01/25 00:50:03;;;;;;;4.30;3.83;;;;;;;-17.51;63.34;98367.69;4913354;28;20097;-56
2023/01/25 00:52:33;;;;;;;6.35;4.78;;;;;;;-17.57;62.89;98382.25;4923836;28;20063;-57
2023/01/25 00:55:04;;;;;;;3.63;3.33;;;;;;;-17.73;61.02;98380.44;4923528;28;20044;-57
2023/01/25 00:57:35;;;;;;;4.45;3.33;;;;;;;-17.74;61.45;98380.31;4927098;28;20430;-56
2023/01/25 01:00:06;;;;;;;4.10;3.40;;;;;;;-17.48;60.85;98372.84;4924281;28;20105;-58
2023/01/25 01:02:38;;;;;;;3.33;3.03;;;;;;;-17.35;59.40;98373.63;4923551;28;20504;-57
2023/01/25 01:05:09;;;;;;;3.63;3.33;;;;;;;-17.20;59.18;98365.44;4924248;28;20521;-55
2023/01/25 01:07:40;;;;;;;3.72;3.38;;;;;;;-17.21;58.48;98383.69;4917622;28;20283;-56
2023/01/25 01:10:12;;;;;;;4.68;3.60;;;;;;;-17.53;56.61;98374.19;4924885;28;20964;-57
2023/01/25 01:12:42;;;;;;;3.58;3.30;;;;;;;-17.34;58.57;98387.81;4923186;28;20054;-56
2023/01/25 01:15:13;;;;;;;3.80;3.35;;;;;;;-17.20;57.27;98384.53;4919184;28;20044;-57
2023/01/25 01:17:45;;;;;;;4.88;3.58;;;;;;;-17.16;57.97;98376.47;4907606;28;20048;-56
2023/01/25 01:20:16;;;;;;;3.40;3.10;;;;;;;-17.25;56.49;98370.91;4909059;28;20048;-57
2023/01/25 01:22:46;;;;;;;3.40;3.20;;;;;;;-17.27;56.24;98365.84;4926629;28;20097;-57
2023/01/25 01:25:17;;;;;;;3.50;3.20;;;;;;;-17.73;54.89;98319.69;4923789;28;20055;-55
2023/01/25 01:27:48;;;;;;;3.58;3.28;;;;;;;-17.28;55.44;98365.75;4928560;28;20394;-55
2023/01/25 01:30:18;;;;;;;3.80;3.30;;;;;;;-17.06;57.72;98368.78;4928639;28;20051;-57
2023/01/25 01:32:52;;;;;;;4.55;3.40;;;;;;;-17.18;55.88;98363.03;4928597;28;20055;-56
2023/01/25 01:35:23;;;;;;;4.85;3.35;;;;;;;-17.42;56.18;98363.28;4918867;28;20054;-58
2023/01/25 01:37:54;;;;;;;3.75;3.45;;;;;;;-17.56;57.34;98361.53;4929569;28;20907;-57
2023/01/25 01:40:24;;;;;;;8.38;3.40;;;;;;;-17.55;56.57;98340.78;4929020;28;20052;-57
2023/01/25 01:42:59;;;;;;;3.65;3.35;;;;;;;-17.55;54.48;98340.78;4929085;28;20051;-58
2023/01/25 01:45:52;;;;;;;4.10;3.65;;;;;;;-17.74;53.65;98347.88;4911654;28;20057;-58
2023/01/25 01:48:33;;;;;;;10.95;3.38;;;;;;;-17.83;53.78;98339.09;4914500;28;20055;-57
2023/01/25 01:51:12;;;;;;;3.70;3.40;;;;;;;-17.62;55.71;98344.56;4904465;28;20044;-57
2023/01/25 01:53:46;;;;;;;5.55;3.30;;;;;;;-17.46;54.76;98326.41;4908946;28;20549;-58
2023/01/25 01:56:21;;;;;;;3.33;3.10;;;;;;;-17.66;52.54;98336.78;4920762;28;21471;-56
2023/01/25 01:58:57;;;;;;;4.15;3.40;;;;;;;-17.84;52.24;98311.59;4913028;28;20044;-58
2023/01/25 02:01:27;;;;;;;4.70;3.63;;;;;;;-17.59;52.95;98323.94;4921145;28;20048;-57
2023/01/25 02:04:00;;;;;;;3.42;3.17;;;;;;;-17.28;51.90;98320.81;4920643;28;20056;-56
2023/01/25 02:06:37;;;;;;;3.83;3.42;;;;;;;-17.34;52.17;98320.41;4914171;28;20052;-57
2023/01/25 02:09:07;;;;;;;3.63;3.40;;;;;;;-17.18;53.29;98308.09;4916708;28;20052;-57
2023/01/25 02:11:40;;;;;;;3.50;3.30;;;;;;;-17.31;52.26;98295.66;4922719;28;20044;-57
2023/01/25 02:14:10;;;;;;;4.78;3.55;;;;;;;-17.27;52.37;98287.56;4918825;28;20459;-58
2023/01/25 02:16:42;;;;;;;3.30;3.00;;;;;;;-17.29;51.32;98274.16;4922646;28;20052;-58
2023/01/25 02:19:23;;;;;;;4.30;3.28;;;;;;;-17.25;52.48;98289.38;4923278;28;20047;-56
2023/01/25 02:21:58;;;;;;;3.80;3.50;;;;;;;-17.38;52.09;98281.09;4904613;28;20044;-58
2023/01/25 02:24:33;;;;;;;3.42;3.13;;;;;;;-17.39;52.18;98272.75;4915425;28;20115;-56
2023/01/25 02:27:05;;;;;;;4.68;3.85;;;;;;;-17.45;53.36;98272.34;4901790;28;20406;-57
2023/01/25 02:29:37;;;;;;;4.03;3.38;;;;;;;-17.64;52.76;98270.38;4913058;28;20459;-55
2023/01/25 02:32:08;;;;;;;3.67;3.38;;;;;;;-17.53;53.67;98274.38;4913229;28;20048;-58
2023/01/25 02:34:38;;;;;;;4.30;3.42;;;;;;;-17.46;52.16;98264.00;4924462;28;20155;-57
2023/01/25 02:37:14;;;;;;;4.50;3.20;;;;;;;-17.35;52.68;98248.81;4920285;28;20052;-58
2023/01/25 02:39:45;;;;;;;4.00;3.60;;;;;;;-17.56;50.11;98229.28;4908224;28;20132;-58
2023/01/25 02:42:17;;;;;;;4.75;3.45;;;;;;;-17.65;51.31;98248.69;4908971;28;20410;-59
2023/01/25 02:44:49;;;;;;;4.88;3.33;;;;;;;-17.50;52.89;98269.56;4917253;28;20048;-58
2023/01/25 02:47:20;;;;;;;4.90;3.75;;;;;;;-17.37;51.70;98260.31;4914895;28;20684;-59
2023/01/25 02:49:50;;;;;;;6.35;3.40;;;;;;;-17.31;52.90;98260.72;4930872;28;20082;-59
2023/01/25 02:52:21;;;;;;;3.42;3.10;;;;;;;-17.34;53.15;98263.00;4912903;28;20056;-60
2023/01/25 02:54:51;;;;;;;3.20;3.00;;;;;;;-17.38;50.94;98243.63;4920699;28;20461;-59
2023/01/25 02:57:23;;;;;;;3.67;3.38;;;;;;;-17.31;52.36;98256.56;4930630;28;20475;-59
2023/01/25 02:59:54;;;;;;;4.07;3.45;;;;;;;-17.36;52.30;98232.13;4909999;28;20048;-59
2023/01/25 03:02:24;;;;;;;4.70;3.47;;;;;;;-17.44;50.72;98249.13;4923155;28;20055;-58
2023/01/25 03:04:57;;;;;;;3.22;3.03;;;;;;;-17.73;50.49;98189.97;4920315;28;20048;-59
2023/01/25 03:07:28;;;;;;;5.70;3.20;;;;;;;-17.53;51.54;98236.09;4918311;28;20052;-59
2023/01/25 03:09:58;;;;;;;4.32;3.40;;;;;;;-17.56;51.30;98229.28;4917149;28;20058;-58
2023/01/25 03:12:30;;;;;;;3.30;3.10;;;;;;;-17.79;51.50;98224.53;4928219;28;20052;-59
2023/01/25 03:15:01;;;;;;;4.95;3.53;;;;;;;-17.81;50.93;98216.13;4911209;28;20061;-59
2023/01/25 03:17:31;;;;;;;2.88;2.75;;;;;;;-17.80;51.27;98222.84;4918161;28;20056;-59
2023/01/25 03:20:02;;;;;;;5.40;3.80;;;;;;;-17.65;50.86;98223.72;4919081;28;20048;-59
2023/01/25 03:22:32;;;;;;;5.85;3.45;;;;;;;-17.84;50.46;98206.84;4917232;28;20076;-59
2023/01/25 03:25:03;;;;;;;4.85;3.90;;;;;;;-17.63;50.43;98213.06;4924057;28;20048;-59
2023/01/25 03:27:35;;;;;;;3.40;3.10;;;;;;;-17.67;50.62;98198.72;4917889;28;20189;-58
2023/01/25 03:30:07;;;;;;;4.32;3.25;;;;;;;-17.69;50.73;98199.38;4918353;28;20059;-59
2023/01/25 03:32:37;;;;;;;4.32;3.50;;;;;;;-17.59;49.80;98204.16;4904780;28;20071;-59
2023/01/25 03:35:08;;;;;;;3.65;3.35;;;;;;;-17.63;50.23;98203.09;4917232;28;20044;-59
2023/01/25 03:37:39;;;;;;;3.70;3.40;;;;;;;-17.44;52.13;98191.72;4916375;28;20056;-59
2023/01/25 03:40:11;;;;;;;3.85;3.30;;;;;;;-17.34;50.91;98170.66;4916821;28;20061;-60
2023/01/25 03:42:43;;;;;;;3.78;3.40;;;;;;;-17.31;49.10;98195.81;4916612;28;20987;-59
2023/01/25 03:45:14;;;;;;;3.90;3.30;;;;;;;-17.01;50.84;98197.59;4917769;28;20818;-59
2023/01/25 03:47:44;;;;;;;4.72;3.20;;;;;;;-16.89;50.42;98191.59;4918752;28;20052;-59
2023/01/25 03:50:15;;;;;;;3.35;3.03;;;;;;;-16.60;51.24;98176.53;4917973;28;20093;-59
2023/01/25 03:52:48;;;;;;;9.18;3.28;;;;;;;-16.93;48.55;98174.69;4917203;28;20063;-59
2023/01/25 03:55:21;;;;;;;3.95;3.25;;;;;;;-17.08;49.02;98180.53;4908250;28;20513;-59
2023/01/25 03:57:53;;;;;;;3.20;2.90;;;;;;;-17.01;49.46;98172.63;4918224;28;20505;-59
2023/01/25 04:00:24;;;;;;;6.40;3.00;;;;;;;-16.86;49.80;98174.28;4917277;28;20048;-59
2023/01/25 04:02:54;;;;;;;5.15;3.38;;;;;;;-16.61;50.76;98174.84;4924112;28;20052;-59
2023/01/25 04:05:25;;;;;;;3.28;2.97;;;;;;;-16.54;47.29;98186.91;4921855;28;20105;-59
2023/01/25 04:07:55;;;;;;;3.65;3.35;;;;;;;-16.62;49.10;98183.13;4923008;28;20075;-59
2023/01/25 04:10:25;;;;;;;2.92;2.72;;;;;;;-16.55;47.53;98180.16;4923103;28;20227;-59
2023/01/25 04:12:57;;;;;;;8.50;3.35;;;;;;;-16.37;49.66;98195.34;4922442;28;20234;-59
2023/01/25 04:15:28;;;;;;;3.92;3.30;;;;;;;-16.17;49.33;98193.94;4919044;28;20696;-59
2023/01/25 04:17:59;;;;;;;3.25;3.05;;;;;;;-16.12;46.45;98177.53;4911408;28;20049;-59
2023/01/25 04:20:29;;;;;;;3.90;3.00;;;;;;;-16.39;47.41;98191.03;4911865;28;20074;-59
2023/01/25 04:23:00;;;;;;;3.45;3.15;;;;;;;-16.65;47.04;98182.94;4912327;28;20078;-59
2023/01/25 04:25:30;;;;;;;3.45;3.20;;;;;;;-16.80;47.87;98192.09;4906469;28;22705;-59
2023/01/25 04:28:02;;;;;;;6.03;3.25;;;;;;;-17.00;48.52;98186.81;4914468;28;20930;-58
2023/01/25 04:30:34;;;;;;;4.55;3.15;;;;;;;-17.31;48.48;98186.69;4912021;28;20897;-58
2023/01/25 04:33:05;;;;;;;3.60;3.30;;;;;;;-17.69;49.40;98120.41;4912588;28;20106;-59
2023/01/25 04:35:36;;;;;;;6.68;3.50;;;;;;;-17.07;50.33;98202.25;4912980;28;20048;-58
2023/01/25 04:38:07;;;;;;;6.28;3.25;;;;;;;-16.96;49.69;98200.34;4911341;28;20044;-58
2023/01/25 04:40:37;;;;;;;3.72;3.03;;;;;;;-17.49;49.23;98150.66;4911797;28;20048;-58
2023/01/25 04:43:10;;;;;;;3.40;3.10;;;;;;;-17.33;50.07;98177.38;4912144;28;20048;-58
2023/01/25 04:45:41;;;;;;;3.67;3.38;;;;;;;-17.17;50.66;98187.47;4903828;28;20063;-59
2023/01/25 04:48:12;;;;;;;3.60;3.30;;;;;;;-17.07;49.97;98197.25;4919217;28;20045;-59
2023/01/25 04:50:44;;;;;;;4.78;3.42;;;;;;;-17.69;49.74;98087.13;4923088;28;20071;-59
2023/01/25 04:53:14;;;;;;;3.30;3.08;;;;;;;-17.44;50.85;98177.63;4900610;28;20059;-59
2023/01/25 04:55:47;;;;;;;3.97;3.13;;;;;;;-17.70;51.35;98122.81;4910877;28;20079;-59
2023/01/25 04:58:19;;;;;;;3.78;3.47;;;;;;;-17.27;50.34;98182.72;4912773;28;20056;-60
2023/01/25 05:00:49;;;;;;;8.40;3.65;;;;;;;-17.53;50.34;98174.56;4912104;28;20056;-60
2023/01/25 05:03:20;;;;;;;4.80;3.58;;;;;;;-17.56;51.70;98194.34;4901299;28;20053;-59
2023/01/25 05:05:50;;;;;;;6.40;3.30;;;;;;;-17.69;51.21;98169.44;4910147;28;20054;-59
2023/01/25 05:08:21;;;;;;;3.20;2.92;;;;;;;-17.53;52.07;98184.53;4887578;28;20053;-59
2023/01/25 05:10:51;;;;;;;3.10;2.90;;;;;;;-17.45;51.50;98183.34;4912279;28;20075;-61
2023/01/25 05:13:23;;;;;;;3.75;3.08;;;;;;;-17.50;51.04;98189.72;4904107;28;20088;-59
2023/01/25 05:15:53;;;;;;;3.97;3.67;;;;;;;-17.73;50.33;98209.94;4904750;28;20055;-59
2023/01/25 05:18:24;;;;;;;4.50;3.25;;;;;;;-17.94;50.49;98173.00;4904186;28;20072;-59
2023/01/25 05:21:01;;;;;;;4.78;3.42;;;;;;;-17.85;50.36;98180.16;4895091;28;20049;-58
2023/01/25 05:23:31;;;;;;;3.40;3.20;;;;;;;-17.98;51.06;98193.50;4904852;28;20083;-59
2023/01/25 05:28:51;;;;;;;3.83;3.53;;;;;;;-18.14;53.26;98196.69;4892186;28;20049;-59
2023/01/25 05:31:21;;;;;;;5.28;3.75;;;;;;;-17.99;54.63;98196.78;4904458;28;20143;-58
2023/01/25 05:33:52;;;;;;;3.10;2.90;;;;;;;-18.06;55.54;98195.53;4906172;28;20048;-59
2023/01/25 05:36:22;;;;;;;3.95;3.42;;;;;;;-17.88;55.79;98183.31;4911941;28;20048;-59
2023/01/25 05:42:39;;;;;;;3.55;3.20;;;;;;;-17.86;54.41;98209.22;4903804;28;20052;-58
2023/01/25 05:45:12;;;;;;;3.63;3.33;;;;;;;-17.95;53.94;98208.66;4900315;28;20102;-58
2023/01/25 05:47:43;;;;;;;3.40;3.20;;;;;;;-18.00;54.39;98195.03;4904682;28;20125;-58
2023/01/25 05:50:13;;;;;;;9.13;3.45;;;;;;;-17.97;55.29;98200.22;4904176;28;20117;-58
2023/01/25 05:52:46;;;;;;;4.05;3.25;;;;;;;-18.07;54.16;98202.91;4904484;28;20107;-58
2023/01/25 05:55:16;;;;;;;4.57;3.65;;;;;;;-18.13;55.70;98197.56;4904900;28;20135;-58
2023/01/25 05:57:47;;;;;;;3.75;3.40;;;;;;;-18.26;55.77;98195.94;4904455;28;20143;-59
2023/01/25 06:00:20;;;;;;;3.70;3.40;;;;;;;-18.40;56.32;98210.00;4904154;28;20135;-58
2023/01/25 06:02:50;;;;;;;3.50;3.20;;;;;;;-18.39;56.90;98209.25;4899850;28;20086;-58
2023/01/25 06:05:20;;;;;;;5.97;3.47;;;;;;;-18.24;57.30;98213.47;4907488;28;20054;-59
2023/01/25 06:07:51;;;;;;;5.40;3.95;;;;;;;-18.14;56.59;98216.66;4905821;28;20066;-58
2023/01/25 06:10:21;;;;;;;5.40;4.43;;;;;;;-17.99;56.20;98215.84;4904820;28;20119;-59
2023/01/25 06:12:52;;;;;;;3.53;3.25;;;;;;;-18.06;55.71;98220.47;4904322;28;20141;-58
2023/01/25 06:15:24;;;;;;;4.10;3.42;;;;;;;-18.76;55.58;98106.47;4901585;28;20048;-58
2023/01/25 06:17:56;;;;;;;3.30;3.05;;;;;;;-18.22;54.41;98221.91;4901604;28;20063;-58
2023/01/25 06:20:27;;;;;;;3.70;3.40;;;;;;;-18.29;55.02;98234.00;4896112;28;20057;-59
2023/01/25 06:22:58;;;;;;;5.00;3.45;;;;;;;-18.27;56.63;98234.97;4895612;28;20049;-58
2023/01/25 06:25:28;;;;;;;5.80;3.60;;;;;;;-18.26;55.35;98218.38;4916337;28;20068;-58
2023/01/25 06:27:58;;;;;;;4.00;3.65;;;;;;;-18.29;55.25;98226.53;4895666;28;20072;-58
2023/01/25 06:30:31;;;;;;;3.95;3.20;;;;;;;-18.31;55.48;98218.06;4895742;28;20048;-58
2023/01/25 06:33:02;;;;;;;5.03;3.45;;;;;;;-18.25;55.72;98216.72;4886238;28;20053;-59
2023/01/25 06:35:34;;;;;;;4.10;3.78;;;;;;;-18.33;56.29;98222.09;4896658;28;20837;-58
2023/01/25 06:38:04;;;;;;;3.45;3.25;;;;;;;-18.28;56.20;98223.25;4895641;28;20053;-59
2023/01/25 06:40:35;;;;;;;3.60;3.30;;;;;;;-18.32;56.48;98216.38;4908291;28;20071;-58
2023/01/25 06:43:09;;;;;;;3.40;3.20;;;;;;;-18.30;56.82;98209.81;4914864;28;20079;-58
2023/01/25 06:45:41;;;;;;;6.40;4.18;;;;;;;-18.29;56.88;98220.69;4895907;28;20045;-58
2023/01/25 06:48:12;;;;;;;4.18;3.80;;;;;;;-18.19;57.42;98217.09;4917224;28;20061;-58
2023/01/25 06:50:42;;;;;;;8.77;5.20;;;;;;;-18.16;57.40;98228.16;4889211;28;20049;-57
2023/01/25 06:53:19;;;;;;;4.28;3.65;;;;;;;-18.23;58.18;98215.22;4899191;28;20059;-57
2023/01/25 06:55:56;;;;;;;10.27;4.82;;;;;;;-18.19;59.05;98208.03;4893650;28;20657;-58
2023/01/25 06:58:28;;;;;;;9.35;5.65;;;;;;;-18.20;59.01;98205.41;4898657;28;20055;-58
2023/01/25 07:01:04;;;;;;;11.55;3.72;;;;;;;-18.37;58.53;98212.69;4902918;28;20051;-57
2023/01/25 07:03:34;;;;;;;12.70;7.15;;;;;;;-18.45;59.50;98218.81;4898403;28;20068;-58
2023/01/25 07:06:06;;;;;;;6.57;4.05;;;;;;;-18.37;59.69;98207.69;4899131;28;20048;-58
2023/01/25 07:08:38;;;;;;;9.52;5.32;;;;;;;-18.40;59.97;98217.47;4897032;28;20069;-58
2023/01/25 07:11:12;;;;;;;4.10;3.80;;;;;;;-18.45;59.97;98203.88;4899847;28;20060;-58
2023/01/25 07:13:44;;;;;;;4.78;4.18;;;;;;;-18.65;59.96;98192.66;4887131;28;20509;-58
2023/01/25 07:16:18;;;;;;;7.15;5.15;;;;;;;-18.64;60.91;98198.47;4910609;28;20048;-57
2023/01/25 07:18:49;;;;;;;8.93;4.90;;;;;;;-18.37;62.72;98205.22;4926749;28;20473;-58
2023/01/25 07:21:21;;;;;;;6.07;4.22;;;;;;;-19.02;62.23;98093.22;4915297;28;20095;-56
2023/01/25 07:23:52;;;;;;;5.68;3.42;;;;;;;-18.40;62.13;98190.06;4917732;28;20170;-58
2023/01/25 07:26:26;;;;;;;3.50;3.20;;;;;;;-18.72;59.05;98169.00;4922715;28;20056;-58
2023/01/25 07:28:58;;;;;;;4.72;3.72;;;;;;;-18.56;59.33;98213.16;4934882;28;20164;-57
2023/01/25 07:31:30;;;;;;;3.35;3.05;;;;;;;-18.65;59.26;98219.19;4917044;28;20135;-57
2023/01/25 07:34:00;;;;;;;3.55;3.35;;;;;;;-18.80;59.63;98217.47;4926950;28;20053;-57
2023/01/25 07:36:31;;;;;;;3.50;3.20;;;;;;;-18.71;60.63;98225.50;4914516;28;20051;-58
2023/01/25 07:39:02;;;;;;;6.50;3.25;;;;;;;-18.82;60.30;98221.47;4909021;28;20051;-57
2023/01/25 07:41:33;;;;;;;6.28;3.40;;;;;;;-19.06;59.81;98175.94;4915512;28;20131;-57
2023/01/25 07:44:04;;;;;;;3.47;3.17;;;;;;;-18.86;59.35;98237.00;4916047;28;20097;-57
2023/01/25 07:46:36;;;;;;;3.40;3.10;;;;;;;-18.75;59.98;98228.53;4917628;28;20048;-57
2023/01/25 07:49:06;;;;;;;4.10;3.22;;;;;;;-18.72;60.12;98221.31;4917408;28;20691;-58
2023/01/25 07:51:37;;;;;;;3.95;3.53;;;;;;;-18.64;60.25;98225.88;4913090;28;20052;-57
2023/01/25 07:54:07;;;;;;;4.50;3.65;;;;;;;-18.62;59.77;98221.88;4916467;28;20727;-58
2023/01/25 07:56:41;;;;;;;3.90;3.10;;;;;;;-18.67;58.80;98240.63;4916200;28;20101;-57
2023/01/25 07:59:13;;;;;;;3.20;3.00;;;;;;;-18.83;59.46;98194.84;4907527;28;20149;-58
2023/01/25 08:01:50;;;;;;;4.65;3.28;;;;;;;-18.61;59.75;98231.09;4917033;28;20056;-57
2023/01/25 08:04:23;;;;;;;3.40;3.10;;;;;;;-18.58;59.97;98221.31;4910557;28;20053;-56
2023/01/25 08:06:58;;;;;;;4.47;3.75;;;;;;;-18.73;59.26;98202.13;4916206;28;20248;-56
2023/01/25 08:09:29;;;;;;;3.88;3.33;;;;;;;-18.72;59.74;98223.78;4915896;28;20105;-55
2023/01/25 08:12:04;;;;;;;3.80;3.33;;;;;;;-18.64;60.05;98226.78;4913217;28;20058;-57
2023/01/25 08:17:49;;;;;;;4.15;3.55;;;;;;;-18.69;60.58;98208.19;4872372;28;20070;-57
2023/01/25 08:20:25;;;;;;;4.18;3.55;;;;;;;-18.79;60.28;98186.84;4914115;28;20869;-56
2023/01/25 08:22:56;;;;;;;3.10;2.90;;;;;;;-18.52;61.95;98201.75;4918252;28;20052;-57
2023/01/25 08:25:27;;;;;;;5.43;3.55;;;;;;;-18.40;62.07;98207.53;4918575;28;20044;-56
2023/01/25 08:27:57;;;;;;;7.57;3.55;;;;;;;-18.47;61.33;98205.41;4918328;28;20075;-57
2023/01/25 08:30:28;;;;;;;6.00;3.50;;;;;;;-19.03;61.94;98125.50;4917213;28;20060;-57
2023/01/25 08:33:01;;;;;;;7.80;3.72;;;;;;;-18.55;61.90;98209.91;4915496;28;20061;-56
2023/01/25 08:35:34;;;;;;;5.10;3.58;;;;;;;-18.58;62.05;98201.38;4905486;28;20057;-56
2023/01/25 08:38:05;;;;;;;4.22;3.25;;;;;;;-18.39;62.31;98209.25;4918722;28;20814;-57
2023/01/25 08:40:37;;;;;;;7.97;3.50;;;;;;;-18.33;62.69;98206.28;4917574;28;20063;-56
2023/01/25 08:43:08;;;;;;;3.30;3.10;;;;;;;-18.34;63.19;98177.16;4918469;28;20841;-57
2023/01/25 08:45:40;;;;;;;3.40;3.05;;;;;;;-18.18;62.70;98214.72;4918388;28;20068;-58
2023/01/25 08:48:15;;;;;;;3.65;3.22;;;;;;;-18.33;61.10;98189.69;4921465;28;20110;-56
2023/01/25 08:50:50;;;;;;;3.92;3.63;;;;;;;-18.34;61.75;98197.09;4917478;28;20051;-57
2023/01/25 08:53:21;;;;;;;6.07;4.15;;;;;;;-18.28;61.88;98198.31;4928267;28;20056;-57
2023/01/25 08:55:53;;;;;;;4.10;3.53;;;;;;;-18.30;61.89;98189.88;4909504;28;20040;-57
2023/01/25 08:58:24;;;;;;;5.13;3.53;;;;;;;-18.12;62.56;98179.31;4917318;28;20071;-55
2023/01/25 09:01:02;;;;;;;6.05;3.72;;;;;;;-18.20;61.96;98197.94;4917825;28;20145;-57
2023/01/25 09:03:36;;;;;;;4.28;3.28;;;;;;;-18.80;61.69;98110.38;4907268;28;20134;-56
2023/01/25 09:06:09;;;;;;;19.23;9.82;;;;;;;-18.34;61.93;98182.16;4917501;28;20407;-56
2023/01/25 09:08:40;;;;;;;9.18;4.78;;;;;;;-18.43;62.01;98172.44;4924938;28;20056;-57
2023/01/25 09:11:13;;;;;;;7.82;4.28;;;;;;;-18.75;61.16;98168.78;4918295;28;20120;-57
2023/01/25 09:13:47;;;;;;;4.80;3.72;;;;;;;-18.62;63.36;98145.50;4919596;28;20051;-57
2023/01/25 09:16:26;;;;;;;14.98;5.28;;;;;;;-18.74;62.82;98129.81;4926144;28;20486;-56
2023/01/25 09:19:02;;;;;;;19.38;6.55;;;;;;;-18.48;62.22;98194.56;4920610;28;20055;-57
2023/01/25 09:21:35;;;;;;;17.30;7.65;;;;;;;-18.72;62.51;98169.00;4921020;28;20399;-57
2023/01/25 09:24:08;;;;;;;19.80;6.47;;;;;;;-18.43;63.03;98172.44;4930763;28;20858;-57
2023/01/25 09:26:42;;;;;;;23.55;7.93;;;;;;;-18.53;62.57;98155.19;4926634;28;20234;-55
2023/01/25 09:29:25;;;;;;;22.30;8.32;;;;;;;-18.48;62.30;98183.75;4916488;28;20067;-55
2023/01/25 09:31:56;;;;;;;14.85;6.68;;;;;;;-18.24;63.38;98178.56;4931246;28;20063;-57
2023/01/25 09:34:29;;;;;;;15.18;5.00;;;;;;;-18.18;62.66;98183.94;4930871;28;20068;-57
2023/01/25 09:37:01;;;;;;;7.88;3.53;;;;;;;-18.07;60.44;98175.47;4925313;28;20056;-56
2023/01/25 09:39:32;;;;;;;5.93;3.10;;;;;;;-17.89;58.64;98166.66;4931398;28;20056;-57
2023/01/25 09:42:33;;;;;;;3.58;3.25;;;;;;;-17.67;58.55;98170.38;4930962;28;20125;-57
2023/01/25 09:45:16;;;;;;;5.22;3.60;;;;;;;-18.33;58.25;98060.09;4907698;28;20050;-58
2023/01/25 09:47:56;;;;;;;5.90;3.00;;;;;;;-17.57;58.07;98182.63;4920429;28;20063;-57
2023/01/25 09:50:41;;;;;;;8.07;3.55;;;;;;;-17.51;58.57;98200.47;4926446;28;20735;-58
2023/01/25 09:53:24;;;;;;;3.17;2.88;;;;;;;-17.52;58.20;98176.31;4916593;28;20056;-58
2023/01/25 09:55:59;;;;;;;6.13;3.25;;;;;;;-17.56;58.39;98181.88;4914607;28;20497;-58
2023/01/25 09:58:36;;;;;;;5.63;3.30;;;;;;;-17.60;58.85;98174.97;4924379;28;20057;-57
2023/01/25 10:01:21;;;;;;;3.30;3.10;;;;;;;-17.81;58.99;98141.31;4939659;28;20073;-57
2023/01/25 10:04:13;;;;;;;8.00;3.70;;;;;;;-17.63;59.96;98177.28;4919758;28;20784;-58
2023/01/25 10:06:48;;;;;;;5.63;3.13;;;;;;;-17.62;60.15;98171.50;4920578;28;20044;-58
2023/01/25 10:09:43;;;;;;;3.63;3.20;;;;;;;-17.71;60.67;98158.50;4920175;28;20142;-57
2023/01/25 10:12:20;;;;;;;6.55;3.97;;;;;;;-17.50;61.76;98197.19;4918582;28;20075;-57
2023/01/25 10:14:52;;;;;;;10.02;4.00;;;;;;;-17.37;62.15;98201.28;4923875;28;20049;-56
2023/01/25 10:17:31;;;;;;;3.95;3.30;;;;;;;-17.31;63.96;98205.78;4953866;28;20114;-57
2023/01/25 10:20:15;;;;;;;4.88;3.40;;;;;;;-17.31;62.41;98195.81;4914147;28;20418;-58
2023/01/25 10:22:52;;;;;;;7.15;3.42;;;;;;;-17.30;63.05;98190.03;4913443;28;20052;-57
2023/01/25 10:25:32;;;;;;;5.05;3.42;;;;;;;-17.28;62.54;98200.97;4909303;28;20104;-57
2023/01/25 10:28:25;;;;;;;4.43;3.00;;;;;;;-17.27;63.61;98207.69;4932913;28;20051;-56
2023/01/25 10:31:04;;;;;;;5.97;3.72;;;;;;;-17.45;64.02;98163.38;4922178;28;20867;-57
2023/01/25 10:33:41;;;;;;;4.47;3.33;;;;;;;-17.21;64.64;98213.91;4924335;28;20374;-59
2023/01/25 10:36:16;;;;;;;7.97;3.55;;;;;;;-17.28;63.97;98188.50;4923522;28;20047;-57
2023/01/25 10:38:56;;;;;;;5.07;3.30;;;;;;;-17.20;63.71;98199.78;4932783;28;20051;-57
2023/01/25 10:41:33;;;;;;;3.95;3.10;;;;;;;-17.15;64.35;98212.53;4924173;28;20063;-57
2023/01/25 10:44:23;;;;;;;7.93;3.53;;;;;;;-17.15;64.00;98207.53;4922553;28;20109;-57
2023/01/25 10:47:01;;;;;;;10.23;3.67;;;;;;;-17.16;63.69;98211.69;4922231;28;20067;-57
2023/01/25 10:49:41;;;;;;;6.82;3.30;;;;;;;-17.04;64.09;98212.41;4923981;28;20054;-57
2023/01/25 10:52:18;;;;;;;6.68;3.17;;;;;;;-17.14;63.74;98191.78;4922901;28;20715;-57
2023/01/25 10:55:15;;;;;;;6.28;3.90;;;;;;;-16.96;63.67;98202.84;4930295;28;20125;-57
2023/01/25 10:57:49;;;;;;;8.32;3.40;;;;;;;-16.75;64.08;98200.69;4880254;28;20140;-57
2023/01/25 11:00:36;;;;;;;7.50;3.20;;;;;;;-16.72;64.11;98188.38;4881359;28;20050;-58
2023/01/25 11:03:20;;;;;;;13.02;3.85;;;;;;;-16.27;66.74;98196.72;4884132;28;20175;-58
2023/01/25 11:05:58;;;;;;;3.95;3.20;;;;;;;-16.28;65.30;98199.97;4881570;28;20053;-59
2023/01/25 11:08:36;;;;;;;7.28;2.90;;;;;;;-16.40;64.12;98194.28;4891988;28;20633;-57
2023/01/25 11:11:33;;;;;;;5.35;3.15;;;;;;;-16.35;64.15;98210.41;4893454;28;20095;-58
2023/01/25 11:14:39;;;;;;;5.97;3.10;;;;;;;-16.49;64.00;98188.81;4869763;28;20163;-59
2023/01/25 11:17:28;;;;;;;9.00;3.40;;;;;;;-16.71;64.91;98196.72;4932207;28;21587;-58
2023/01/25 11:20:17;;;;;;;8.48;3.63;;;;;;;-16.74;65.48;98198.28;4923055;28;20131;-58
2023/01/25 11:22:53;;;;;;;12.32;3.30;;;;;;;-16.72;66.02;98193.38;4923679;28;20067;-59
2023/01/25 11:25:29;;;;;;;14.23;3.83;;;;;;;-16.63;66.28;98211.38;4922536;28;20048;-59
2023/01/25 11:28:18;;;;;;;7.35;4.47;;;;;;;-16.83;66.96;98206.91;4931151;28;20193;-58
2023/01/25 11:30:51;;;;;;;5.63;3.38;;;;;;;-16.82;67.75;98213.63;4932683;28;20069;-57
2023/01/25 11:33:25;;;;;;;6.80;3.72;;;;;;;-16.81;67.72;98216.22;4923118;28;20056;-59
2023/01/25 11:36:18;;;;;;;6.68;4.05;;;;;;;-16.80;68.28;98217.94;4911720;28;20438;-58
2023/01/25 11:39:06;;;;;;;6.68;3.67;;;;;;;-16.81;68.29;98190.38;4921868;28;20067;-57
2023/01/25 11:41:43;;;;;;;;;;;;;;;-16.76;68.29;98228.94;4922923;28;20071;-58
2023/01/25 11:44:46;;;;;;;6.25;3.55;;;;;;;-16.84;69.03;98230.19;4923764;27;19944;-56
2023/01/25 11:47:26;;;;;;;8.65;4.75;;;;;;;-16.79;69.32;98223.81;4911644;28;20048;-56
2023/01/25 11:50:08;;;;;;;6.00;3.72;;;;;;;-16.78;69.37;98215.53;4915368;28;20138;-56
2023/01/25 11:53:00;;;;;;;9.75;4.30;;;;;;;-16.68;69.57;98225.25;4912069;28;20904;-55
2023/01/25 11:55:36;;;;;;;11.32;4.00;;;;;;;-16.53;70.04;98208.59;4935463;28;20315;-57
2023/01/25 11:58:25;;;;;;;21.33;5.20;;;;;;;-16.69;69.51;98221.03;4945458;28;20062;-58
2023/01/25 12:01:09;;;;;;;28.63;9.20;;;;;;;-16.76;69.29;98228.94;4920611;28;20059;-57
2023/01/25 12:04:30;;;;;;;8.15;3.78;;;;;;;-16.77;69.05;98232.19;4931595;28;20155;-56
2023/01/25 12:07:05;;;;;;;23.05;8.63;;;;;;;-16.81;69.17;98215.38;4933026;28;20948;-55